WBGG

Kuching International Airport

Kuching, Malaysia
TAF WBGG 202300Z 2100/2200 VRB03KT 9999 SCT020 TEMPO 2100/2103 5000 RA FEW003 BECMG 2105/2107 25007KT
Issued Valid From Valid To
Apr-20 @ 23:00 UTC
(5 hours ago)
Apr-21 @ 00:00 UTC
(4 hours ago)
Apr-22 @ 00:00 UTC
(in 20 hours)
Apr-21 @ 00:00 to Apr-21 @ 05:00
TAF WBGG 202300Z 2100/2200 VRB03KT 9999 SCT020
Wind Visibility Clouds
Variable at 3 knots 10,000+ meters
  • Scattered at 2,000' AGL
Expired Click to View Apr-21 @ 00:00 to Apr-21 @ 03:00
TEMPO 2100/2103 5000 RA FEW003
Visibility Clouds Conditions
5,005 meters
  • Few at 300' AGL
  • Rain
Becoming Apr-21 @ 05:00 to Apr-22 @ 00:00
BECMG 2105/2107 25007KT
Wind Visibility Clouds
250° at 7 knots 10,000+ meters
  • Scattered at 2,000' AGL
TAF WBGG 202300Z 2100/2200 VRB03KT 9999 SCT020 TEMPO 2100/2103 5000 RA FEW003 BECMG 2105/2107 25007KT
Issued Apr-20 @ 23:00 UTC
(5 hours ago)
Valid From Apr-21 @ 00:00 UTC
(4 hours ago)
Valid To Apr-22 @ 00:00 UTC
(in 20 hours)
Apr-21 @ 00:00 - Apr-21 @ 05:00
Wind Visibility
Variable at 3 knots 10,000+ meters
Clouds
  • Scattered at 2,000' AGL
Apr-21 @ 00:00 - Apr-21 @ 03:00
Clouds
  • Few at 300' AGL
Conditions
  • Rain
Becoming Apr-21 @ 05:00 - Apr-22 @ 00:00
Wind Visibility
250° at 7 knots 10,000+ meters
Clouds
  • Scattered at 2,000' AGL